Helgoland Island, Germany

5:56 AM CEST on May 30, 2015 (GMT +0200)
Nordholz Navy | | Change Station
CLOSE
Current Station
Airport
Location: Nordholz,
Elevation: 105 ft
Nearby Weather Stations

Elev 105 ft 53.76 °N, 8.66 °E | Updated 27 minutes ago

Mostly Cloudy
Mostly Cloudy
46 °F
Feels Like 40 °F
N
15
Wind Variable Wind from West

Today
High -- | Low -- °F
--% Chance of Precip.
Yesterday
High -- | Low -- °F
Precip. -- in
5:04 AM 9:48 PM
Waxing Gibbous, 88% visible
Pressure 29.65 in
Visibility 4.3 miles
Clouds Few 600 ft
Scattered Clouds 1300 ft
Mostly Cloudy 2000 ft
Windchill 40 °F
Dew Point 43 °F
Humidity 87%
Rainfall 0.00 in
Snow Depth Not available.
UV 0 out of 12
Pollen Not available.
Air Quality Not available.
Flu Activity Not available.
SPECI ETMN 300329Z 26013KT 7000 FEW006 SCT013CB BKN020 08/06 Q1004 RERA WHT

More Conditions Fewer Conditions

Pressure 29.65 in
Visibility 4.3 miles
Clouds Few 600 ft
Scattered Clouds 1300 ft
Mostly Cloudy 2000 ft
Windchill 40 °F
Dew Point 43 °F
Humidity 87%
Rainfall 0.00 in
Snow Depth Not available.
UV 0 out of 12
Pollen Not available.
Air Quality Not available.
Flu Activity Not available.
SPECI ETMN 300329Z 26013KT 7000 FEW006 SCT013CB BKN020 08/06 Q1004 RERA WHT

More Conditions Fewer Conditions

10-Day Weather Forecast

Almanac

Astronomy

May. 30, 2015 Rise Set
Actual Time
Civil Twilight
Nautical Twilight
Astronomical Twilight
Moon
Length of Visible Light
Length of Day
Tomorrow will be .
, % of the Moon is Illuminated

Today's Extremes

Country Highs Country Lows

Community

WunderPhotos

Upload Photos

1,825,441 photos uploaded!

WunderBlogs® & News

Nearby

Air Quality

  Air Quality AQ Index Pollutant
Not available.

Snow Depth

Station Depth Elevation

Earthquake Activity

City Distance Mag. Time & Date
Minimum magnitude displayed is 2.5.

Coastal Water Temperatures

Place Temperature

Stations

Nearby Weather Stations

Station Location Temp. Windchill Dew Point Humidity Wind Precip. Elev Updated Type